sensor_id;sensor_type;location;lat;lon;timestamp;P1;durP1;ratioP1;P2;durP2;ratioP2
73675;SDS011;61975;48.660;10.164;2022-07-29T00:00:59;11.60;;;9.77;;
73675;SDS011;61975;48.660;10.164;2022-07-29T00:03:24;12.47;;;9.03;;
73675;SDS011;61975;48.660;10.164;2022-07-29T00:05:49;14.03;;;9.07;;
73675;SDS011;61975;48.660;10.164;2022-07-29T00:08:16;12.68;;;9.45;;
73675;SDS011;61975;48.660;10.164;2022-07-29T00:10:42;11.30;;;9.37;;
73675;SDS011;61975;48.660;10.164;2022-07-29T00:13:08;11.87;;;9.27;;
73675;SDS011;61975;48.660;10.164;2022-07-29T00:15:33;12.43;;;9.27;;
73675;SDS011;61975;48.660;10.164;2022-07-29T00:17:59;11.60;;;9.20;;
73675;SDS011;61975;48.660;10.164;2022-07-29T00:20:24;13.80;;;9.47;;
73675;SDS011;61975;48.660;10.164;2022-07-29T00:22:50;12.50;;;9.70;;
73675;SDS011;61975;48.660;10.164;2022-07-29T00:25:15;12.23;;;9.40;;
73675;SDS011;61975;48.660;10.164;2022-07-29T00:27:40;12.83;;;9.97;;
73675;SDS011;61975;48.660;10.164;2022-07-29T00:30:06;13.57;;;9.90;;
73675;SDS011;61975;48.660;10.164;2022-07-29T00:32:32;14.75;;;10.05;;
73675;SDS011;61975;48.660;10.164;2022-07-29T00:34:58;12.88;;;9.90;;
73675;SDS011;61975;48.660;10.164;2022-07-29T00:37:42;12.95;;;10.07;;
73675;SDS011;61975;48.660;10.164;2022-07-29T00:40:08;13.97;;;9.43;;
73675;SDS011;61975;48.660;10.164;2022-07-29T00:42:47;15.20;;;9.48;;
73675;SDS011;61975;48.660;10.164;2022-07-29T00:45:14;14.10;;;9.73;;
73675;SDS011;61975;48.660;10.164;2022-07-29T00:47:41;12.67;;;10.03;;
73675;SDS011;61975;48.660;10.164;2022-07-29T00:50:07;12.98;;;9.68;;
73675;SDS011;61975;48.660;10.164;2022-07-29T00:52:35;11.27;;;9.00;;
73675;SDS011;61975;48.660;10.164;2022-07-29T00:55:06;12.77;;;8.80;;
73675;SDS011;61975;48.660;10.164;2022-07-29T00:57:33;11.68;;;8.45;;
73675;SDS011;61975;48.660;10.164;2022-07-29T01:00:00;11.68;;;9.13;;
73675;SDS011;61975;48.660;10.164;2022-07-29T01:02:26;13.07;;;8.80;;
73675;SDS011;61975;48.660;10.164;2022-07-29T01:04:52;10.77;;;7.95;;
73675;SDS011;61975;48.660;10.164;2022-07-29T01:07:18;10.27;;;7.40;;
73675;SDS011;61975;48.660;10.164;2022-07-29T01:09:44;9.13;;;6.90;;
73675;SDS011;61975;48.660;10.164;2022-07-29T01:12:11;9.88;;;7.22;;
73675;SDS011;61975;48.660;10.164;2022-07-29T01:14:40;11.27;;;7.53;;
73675;SDS011;61975;48.660;10.164;2022-07-29T01:17:09;9.23;;;7.03;;
73675;SDS011;61975;48.660;10.164;2022-07-29T01:31:16;9.93;;;7.15;;
73675;SDS011;61975;48.660;10.164;2022-07-29T01:34:03;9.55;;;6.47;;
73675;SDS011;61975;48.660;10.164;2022-07-29T01:36:37;11.27;;;7.25;;
73675;SDS011;61975;48.660;10.164;2022-07-29T01:39:10;10.63;;;7.32;;
73675;SDS011;61975;48.660;10.164;2022-07-29T01:41:40;8.73;;;6.93;;
73675;SDS011;61975;48.660;10.164;2022-07-29T01:44:22;11.73;;;7.22;;
73675;SDS011;61975;48.660;10.164;2022-07-29T01:46:57;8.68;;;6.80;;
73675;SDS011;61975;48.660;10.164;2022-07-29T01:49:30;8.50;;;7.07;;
73675;SDS011;61975;48.660;10.164;2022-07-29T01:52:02;9.40;;;7.20;;
73675;SDS011;61975;48.660;10.164;2022-07-29T01:57:03;9.23;;;7.20;;
73675;SDS011;61975;48.660;10.164;2022-07-29T01:59:32;10.80;;;7.43;;
73675;SDS011;61975;48.660;10.164;2022-07-29T02:01:59;8.23;;;6.28;;
73675;SDS011;61975;48.660;10.164;2022-07-29T02:04:26;9.25;;;6.78;;
73675;SDS011;61975;48.660;10.164;2022-07-29T02:06:54;8.37;;;6.37;;
73675;SDS011;61975;48.660;10.164;2022-07-29T02:09:23;10.73;;;6.88;;
73675;SDS011;61975;48.660;10.164;2022-07-29T02:11:52;10.30;;;7.18;;
73675;SDS011;61975;48.660;10.164;2022-07-29T02:14:20;11.00;;;7.25;;
73675;SDS011;61975;48.660;10.164;2022-07-29T02:16:49;8.40;;;6.95;;
73675;SDS011;61975;48.660;10.164;2022-07-29T02:19:17;9.23;;;7.47;;
73675;SDS011;61975;48.660;10.164;2022-07-29T02:21:44;8.82;;;7.13;;
73675;SDS011;61975;48.660;10.164;2022-07-29T02:24:11;9.68;;;7.78;;
73675;SDS011;61975;48.660;10.164;2022-07-29T02:26:39;11.68;;;7.57;;
73675;SDS011;61975;48.660;10.164;2022-07-29T02:29:06;8.68;;;7.15;;
73675;SDS011;61975;48.660;10.164;2022-07-29T02:31:34;10.10;;;7.67;;
73675;SDS011;61975;48.660;10.164;2022-07-29T02:34:03;10.38;;;7.38;;
73675;SDS011;61975;48.660;10.164;2022-07-29T02:36:32;10.15;;;7.47;;
73675;SDS011;61975;48.660;10.164;2022-07-29T02:38:59;11.25;;;8.20;;
73675;SDS011;61975;48.660;10.164;2022-07-29T02:41:27;10.35;;;7.55;;
73675;SDS011;61975;48.660;10.164;2022-07-29T02:44:17;10.73;;;7.93;;
73675;SDS011;61975;48.660;10.164;2022-07-29T02:46:49;11.70;;;8.07;;
73675;SDS011;61975;48.660;10.164;2022-07-29T02:51:49;10.32;;;7.88;;
73675;SDS011;61975;48.660;10.164;2022-07-29T02:54:51;10.32;;;8.02;;
73675;SDS011;61975;48.660;10.164;2022-07-29T02:57:21;11.30;;;7.40;;
73675;SDS011;61975;48.660;10.164;2022-07-29T02:59:53;10.27;;;8.23;;
73675;SDS011;61975;48.660;10.164;2022-07-29T03:02:25;12.10;;;8.65;;
73675;SDS011;61975;48.660;10.164;2022-07-29T03:04:52;12.02;;;8.70;;
73675;SDS011;61975;48.660;10.164;2022-07-29T03:07:20;11.95;;;8.00;;
73675;SDS011;61975;48.660;10.164;2022-07-29T03:09:47;11.67;;;8.17;;
73675;SDS011;61975;48.660;10.164;2022-07-29T03:12:14;11.57;;;7.97;;
73675;SDS011;61975;48.660;10.164;2022-07-29T03:14:41;10.43;;;8.02;;
73675;SDS011;61975;48.660;10.164;2022-07-29T03:17:09;10.25;;;7.85;;
73675;SDS011;61975;48.660;10.164;2022-07-29T03:19:34;9.52;;;7.72;;
73675;SDS011;61975;48.660;10.164;2022-07-29T03:22:00;11.93;;;8.40;;
73675;SDS011;61975;48.660;10.164;2022-07-29T03:24:34;10.38;;;7.90;;
73675;SDS011;61975;48.660;10.164;2022-07-29T03:27:00;10.65;;;8.23;;
73675;SDS011;61975;48.660;10.164;2022-07-29T03:29:27;10.17;;;8.17;;
73675;SDS011;61975;48.660;10.164;2022-07-29T03:31:53;11.75;;;8.30;;
73675;SDS011;61975;48.660;10.164;2022-07-29T03:34:18;10.93;;;7.60;;
73675;SDS011;61975;48.660;10.164;2022-07-29T03:36:44;10.60;;;8.60;;
73675;SDS011;61975;48.660;10.164;2022-07-29T03:39:10;10.85;;;8.27;;
73675;SDS011;61975;48.660;10.164;2022-07-29T03:41:38;9.43;;;7.77;;
73675;SDS011;61975;48.660;10.164;2022-07-29T03:44:06;10.07;;;7.57;;
73675;SDS011;61975;48.660;10.164;2022-07-29T03:46:33;10.57;;;8.00;;
73675;SDS011;61975;48.660;10.164;2022-07-29T03:49:01;12.05;;;8.18;;
73675;SDS011;61975;48.660;10.164;2022-07-29T03:51:29;10.13;;;7.85;;
73675;SDS011;61975;48.660;10.164;2022-07-29T03:53:55;11.63;;;8.00;;
73675;SDS011;61975;48.660;10.164;2022-07-29T03:56:21;11.75;;;7.90;;
73675;SDS011;61975;48.660;10.164;2022-07-29T03:58:51;10.90;;;8.73;;
73675;SDS011;61975;48.660;10.164;2022-07-29T04:01:18;10.07;;;7.55;;
73675;SDS011;61975;48.660;10.164;2022-07-29T04:03:45;10.02;;;8.07;;
73675;SDS011;61975;48.660;10.164;2022-07-29T04:06:10;12.10;;;7.97;;
73675;SDS011;61975;48.660;10.164;2022-07-29T04:08:36;11.93;;;8.23;;
73675;SDS011;61975;48.660;10.164;2022-07-29T04:11:02;12.20;;;7.83;;
73675;SDS011;61975;48.660;10.164;2022-07-29T04:13:29;10.50;;;8.18;;
73675;SDS011;61975;48.660;10.164;2022-07-29T04:15:55;10.90;;;8.48;;
73675;SDS011;61975;48.660;10.164;2022-07-29T04:18:20;10.40;;;8.10;;
73675;SDS011;61975;48.660;10.164;2022-07-29T04:20:46;11.32;;;8.30;;
73675;SDS011;61975;48.660;10.164;2022-07-29T04:23:11;10.47;;;7.87;;
73675;SDS011;61975;48.660;10.164;2022-07-29T04:25:37;10.57;;;8.17;;
73675;SDS011;61975;48.660;10.164;2022-07-29T04:28:04;10.40;;;7.53;;
73675;SDS011;61975;48.660;10.164;2022-07-29T04:30:29;11.10;;;7.83;;
73675;SDS011;61975;48.660;10.164;2022-07-29T04:32:56;11.05;;;7.75;;
73675;SDS011;61975;48.660;10.164;2022-07-29T04:35:21;11.32;;;8.07;;
73675;SDS011;61975;48.660;10.164;2022-07-29T04:37:47;11.00;;;8.10;;
73675;SDS011;61975;48.660;10.164;2022-07-29T04:40:12;9.97;;;7.30;;
73675;SDS011;61975;48.660;10.164;2022-07-29T04:42:38;10.10;;;7.50;;
73675;SDS011;61975;48.660;10.164;2022-07-29T04:45:04;12.10;;;7.90;;
73675;SDS011;61975;48.660;10.164;2022-07-29T04:47:30;12.93;;;7.90;;
73675;SDS011;61975;48.660;10.164;2022-07-29T04:49:56;9.63;;;7.50;;
73675;SDS011;61975;48.660;10.164;2022-07-29T04:52:22;12.83;;;8.00;;
73675;SDS011;61975;48.660;10.164;2022-07-29T04:54:48;20.42;;;8.00;;
73675;SDS011;61975;48.660;10.164;2022-07-29T04:57:14;13.20;;;7.93;;
73675;SDS011;61975;48.660;10.164;2022-07-29T04:59:39;12.03;;;8.23;;
73675;SDS011;61975;48.660;10.164;2022-07-29T05:02:05;10.57;;;7.80;;
73675;SDS011;61975;48.660;10.164;2022-07-29T05:04:30;9.70;;;7.77;;
73675;SDS011;61975;48.660;10.164;2022-07-29T05:06:56;10.03;;;8.07;;
73675;SDS011;61975;48.660;10.164;2022-07-29T05:09:21;11.00;;;7.90;;
73675;SDS011;61975;48.660;10.164;2022-07-29T05:11:47;9.80;;;7.93;;
73675;SDS011;61975;48.660;10.164;2022-07-29T05:14:12;10.83;;;7.67;;
73675;SDS011;61975;48.660;10.164;2022-07-29T05:16:38;10.68;;;7.97;;
73675;SDS011;61975;48.660;10.164;2022-07-29T05:19:05;8.95;;;7.03;;
73675;SDS011;61975;48.660;10.164;2022-07-29T05:21:30;10.10;;;7.40;;
73675;SDS011;61975;48.660;10.164;2022-07-29T05:23:55;9.73;;;7.53;;
73675;SDS011;61975;48.660;10.164;2022-07-29T05:26:21;10.30;;;7.70;;
73675;SDS011;61975;48.660;10.164;2022-07-29T05:28:46;10.75;;;7.93;;
73675;SDS011;61975;48.660;10.164;2022-07-29T05:31:12;10.60;;;7.57;;
73675;SDS011;61975;48.660;10.164;2022-07-29T05:33:39;10.18;;;7.95;;
73675;SDS011;61975;48.660;10.164;2022-07-29T05:36:05;9.83;;;8.03;;
73675;SDS011;61975;48.660;10.164;2022-07-29T05:38:31;11.70;;;8.70;;
73675;SDS011;61975;48.660;10.164;2022-07-29T05:40:58;12.82;;;8.48;;
73675;SDS011;61975;48.660;10.164;2022-07-29T05:43:24;12.55;;;9.30;;
73675;SDS011;61975;48.660;10.164;2022-07-29T05:45:51;11.90;;;8.50;;
73675;SDS011;61975;48.660;10.164;2022-07-29T05:48:16;13.93;;;11.07;;
73675;SDS011;61975;48.660;10.164;2022-07-29T05:50:42;14.27;;;11.50;;
73675;SDS011;61975;48.660;10.164;2022-07-29T05:53:07;15.10;;;11.43;;
73675;SDS011;61975;48.660;10.164;2022-07-29T05:55:32;14.80;;;11.73;;
73675;SDS011;61975;48.660;10.164;2022-07-29T05:57:58;15.70;;;12.57;;
73675;SDS011;61975;48.660;10.164;2022-07-29T06:00:23;18.03;;;13.50;;
73675;SDS011;61975;48.660;10.164;2022-07-29T06:02:49;18.40;;;12.53;;
73675;SDS011;61975;48.660;10.164;2022-07-29T06:05:14;17.63;;;12.80;;
73675;SDS011;61975;48.660;10.164;2022-07-29T06:07:40;21.00;;;13.70;;
73675;SDS011;61975;48.660;10.164;2022-07-29T06:10:05;19.53;;;13.83;;
73675;SDS011;61975;48.660;10.164;2022-07-29T06:12:31;20.37;;;13.70;;
73675;SDS011;61975;48.660;10.164;2022-07-29T06:14:57;22.83;;;14.70;;
73675;SDS011;61975;48.660;10.164;2022-07-29T06:17:22;22.73;;;15.18;;
73675;SDS011;61975;48.660;10.164;2022-07-29T06:19:48;24.77;;;15.77;;
73675;SDS011;61975;48.660;10.164;2022-07-29T06:22:15;23.10;;;15.00;;
73675;SDS011;61975;48.660;10.164;2022-07-29T06:24:42;24.37;;;15.70;;
73675;SDS011;61975;48.660;10.164;2022-07-29T06:27:09;24.05;;;15.13;;
73675;SDS011;61975;48.660;10.164;2022-07-29T06:29:35;24.55;;;16.25;;
73675;SDS011;61975;48.660;10.164;2022-07-29T06:32:00;25.00;;;16.35;;
73675;SDS011;61975;48.660;10.164;2022-07-29T06:34:27;23.93;;;15.77;;
73675;SDS011;61975;48.660;10.164;2022-07-29T06:36:52;22.05;;;14.88;;
73675;SDS011;61975;48.660;10.164;2022-07-29T06:39:18;24.20;;;16.13;;
73675;SDS011;61975;48.660;10.164;2022-07-29T06:41:46;25.77;;;17.10;;
73675;SDS011;61975;48.660;10.164;2022-07-29T06:44:15;27.25;;;17.77;;
73675;SDS011;61975;48.660;10.164;2022-07-29T06:46:41;22.23;;;15.10;;
73675;SDS011;61975;48.660;10.164;2022-07-29T06:49:07;21.80;;;14.00;;
73675;SDS011;61975;48.660;10.164;2022-07-29T06:51:32;22.98;;;15.38;;
73675;SDS011;61975;48.660;10.164;2022-07-29T06:53:58;17.92;;;12.07;;
73675;SDS011;61975;48.660;10.164;2022-07-29T06:56:25;19.63;;;13.87;;
73675;SDS011;61975;48.660;10.164;2022-07-29T06:58:51;18.88;;;14.15;;
73675;SDS011;61975;48.660;10.164;2022-07-29T07:01:17;18.48;;;13.32;;
73675;SDS011;61975;48.660;10.164;2022-07-29T07:03:42;12.90;;;9.07;;
73675;SDS011;61975;48.660;10.164;2022-07-29T07:06:08;17.60;;;12.90;;
73675;SDS011;61975;48.660;10.164;2022-07-29T07:08:33;15.03;;;11.40;;
73675;SDS011;61975;48.660;10.164;2022-07-29T07:10:58;17.17;;;12.90;;
73675;SDS011;61975;48.660;10.164;2022-07-29T07:13:24;19.20;;;12.70;;
73675;SDS011;61975;48.660;10.164;2022-07-29T07:15:50;18.42;;;13.52;;
73675;SDS011;61975;48.660;10.164;2022-07-29T07:18:17;17.00;;;13.23;;
73675;SDS011;61975;48.660;10.164;2022-07-29T07:20:42;18.67;;;13.35;;
73675;SDS011;61975;48.660;10.164;2022-07-29T07:23:08;15.43;;;11.85;;
73675;SDS011;61975;48.660;10.164;2022-07-29T07:25:34;15.50;;;11.87;;
73675;SDS011;61975;48.660;10.164;2022-07-29T07:27:59;18.03;;;12.70;;
73675;SDS011;61975;48.660;10.164;2022-07-29T07:30:25;17.75;;;12.77;;
73675;SDS011;61975;48.660;10.164;2022-07-29T07:32:50;19.80;;;12.50;;
73675;SDS011;61975;48.660;10.164;2022-07-29T07:35:16;14.15;;;11.68;;
73675;SDS011;61975;48.660;10.164;2022-07-29T07:37:41;15.87;;;11.70;;
73675;SDS011;61975;48.660;10.164;2022-07-29T07:40:08;14.80;;;11.73;;
73675;SDS011;61975;48.660;10.164;2022-07-29T07:42:36;14.50;;;11.25;;
73675;SDS011;61975;48.660;10.164;2022-07-29T07:45:02;15.25;;;11.38;;
73675;SDS011;61975;48.660;10.164;2022-07-29T07:47:28;14.67;;;11.10;;
73675;SDS011;61975;48.660;10.164;2022-07-29T07:49:53;14.23;;;11.00;;
73675;SDS011;61975;48.660;10.164;2022-07-29T07:52:19;14.23;;;10.40;;
73675;SDS011;61975;48.660;10.164;2022-07-29T07:54:45;14.00;;;10.53;;
73675;SDS011;61975;48.660;10.164;2022-07-29T07:57:11;13.43;;;10.02;;
73675;SDS011;61975;48.660;10.164;2022-07-29T07:59:37;14.13;;;9.30;;
73675;SDS011;61975;48.660;10.164;2022-07-29T08:02:03;13.38;;;9.80;;
73675;SDS011;61975;48.660;10.164;2022-07-29T08:04:30;11.55;;;9.10;;
73675;SDS011;61975;48.660;10.164;2022-07-29T08:06:55;14.17;;;9.67;;
73675;SDS011;61975;48.660;10.164;2022-07-29T08:09:22;11.73;;;9.10;;
73675;SDS011;61975;48.660;10.164;2022-07-29T08:11:48;15.02;;;10.07;;
73675;SDS011;61975;48.660;10.164;2022-07-29T08:14:14;12.00;;;10.00;;
73675;SDS011;61975;48.660;10.164;2022-07-29T08:16:40;13.23;;;10.37;;
73675;SDS011;61975;48.660;10.164;2022-07-29T08:19:06;13.57;;;10.68;;
73675;SDS011;61975;48.660;10.164;2022-07-29T08:21:31;13.43;;;11.30;;
73675;SDS011;61975;48.660;10.164;2022-07-29T08:23:57;13.35;;;10.63;;
73675;SDS011;61975;48.660;10.164;2022-07-29T08:26:41;13.27;;;10.90;;
73675;SDS011;61975;48.660;10.164;2022-07-29T08:29:08;14.43;;;11.25;;
73675;SDS011;61975;48.660;10.164;2022-07-29T08:31:34;12.15;;;10.30;;
73675;SDS011;61975;48.660;10.164;2022-07-29T08:34:00;14.25;;;10.10;;
73675;SDS011;61975;48.660;10.164;2022-07-29T08:36:27;12.90;;;10.43;;
73675;SDS011;61975;48.660;10.164;2022-07-29T08:38:53;10.80;;;8.97;;
73675;SDS011;61975;48.660;10.164;2022-07-29T08:41:19;11.23;;;9.23;;
73675;SDS011;61975;48.660;10.164;2022-07-29T08:43:44;13.70;;;10.43;;
73675;SDS011;61975;48.660;10.164;2022-07-29T08:46:10;16.60;;;10.35;;
73675;SDS011;61975;48.660;10.164;2022-07-29T08:48:36;13.83;;;10.30;;
73675;SDS011;61975;48.660;10.164;2022-07-29T08:51:02;13.80;;;10.30;;
73675;SDS011;61975;48.660;10.164;2022-07-29T08:53:29;11.30;;;8.98;;
73675;SDS011;61975;48.660;10.164;2022-07-29T08:55:54;10.87;;;9.10;;
73675;SDS011;61975;48.660;10.164;2022-07-29T08:58:21;11.65;;;8.50;;
73675;SDS011;61975;48.660;10.164;2022-07-29T09:00:51;10.32;;;8.55;;
73675;SDS011;61975;48.660;10.164;2022-07-29T09:03:22;10.15;;;7.63;;
73675;SDS011;61975;48.660;10.164;2022-07-29T09:05:49;10.05;;;7.75;;
73675;SDS011;61975;48.660;10.164;2022-07-29T09:08:16;10.60;;;6.70;;
73675;SDS011;61975;48.660;10.164;2022-07-29T09:10:42;9.00;;;6.82;;
73675;SDS011;61975;48.660;10.164;2022-07-29T09:13:09;9.18;;;7.32;;
73675;SDS011;61975;48.660;10.164;2022-07-29T09:15:34;10.97;;;7.87;;
73675;SDS011;61975;48.660;10.164;2022-07-29T09:18:00;9.27;;;7.63;;
73675;SDS011;61975;48.660;10.164;2022-07-29T09:20:27;9.18;;;7.68;;
73675;SDS011;61975;48.660;10.164;2022-07-29T09:23:13;9.60;;;7.87;;
73675;SDS011;61975;48.660;10.164;2022-07-29T09:25:39;10.70;;;8.55;;
73675;SDS011;61975;48.660;10.164;2022-07-29T09:28:09;9.98;;;8.30;;
73675;SDS011;61975;48.660;10.164;2022-07-29T09:30:58;10.02;;;7.50;;
73675;SDS011;61975;48.660;10.164;2022-07-29T09:33:23;12.07;;;6.93;;
73675;SDS011;61975;48.660;10.164;2022-07-29T09:38:32;9.48;;;7.50;;
73675;SDS011;61975;48.660;10.164;2022-07-29T09:41:02;10.13;;;8.23;;
73675;SDS011;61975;48.660;10.164;2022-07-29T09:43:29;11.93;;;9.15;;
73675;SDS011;61975;48.660;10.164;2022-07-29T09:45:55;11.87;;;9.40;;
73675;SDS011;61975;48.660;10.164;2022-07-29T09:48:21;12.15;;;10.38;;
73675;SDS011;61975;48.660;10.164;2022-07-29T09:50:48;10.23;;;8.82;;
73675;SDS011;61975;48.660;10.164;2022-07-29T09:56:12;11.43;;;8.73;;
73675;SDS011;61975;48.660;10.164;2022-07-29T09:58:39;12.98;;;9.60;;
73675;SDS011;61975;48.660;10.164;2022-07-29T10:01:04;8.30;;;7.13;;
73675;SDS011;61975;48.660;10.164;2022-07-29T10:03:30;10.27;;;9.18;;
73675;SDS011;61975;48.660;10.164;2022-07-29T10:06:08;10.93;;;8.83;;
73675;SDS011;61975;48.660;10.164;2022-07-29T10:08:35;12.30;;;9.43;;
73675;SDS011;61975;48.660;10.164;2022-07-29T10:11:14;11.57;;;8.90;;
73675;SDS011;61975;48.660;10.164;2022-07-29T10:13:43;11.47;;;8.20;;
73675;SDS011;61975;48.660;10.164;2022-07-29T10:16:10;10.65;;;8.65;;
73675;SDS011;61975;48.660;10.164;2022-07-29T10:18:39;12.13;;;10.15;;
73675;SDS011;61975;48.660;10.164;2022-07-29T10:21:07;11.13;;;8.98;;
73675;SDS011;61975;48.660;10.164;2022-07-29T10:23:32;10.87;;;8.80;;
73675;SDS011;61975;48.660;10.164;2022-07-29T10:25:59;12.65;;;9.05;;
73675;SDS011;61975;48.660;10.164;2022-07-29T10:28:25;10.00;;;8.50;;
73675;SDS011;61975;48.660;10.164;2022-07-29T10:30:51;11.70;;;9.27;;
73675;SDS011;61975;48.660;10.164;2022-07-29T10:43:52;9.93;;;7.32;;
73675;SDS011;61975;48.660;10.164;2022-07-29T10:46:20;11.75;;;8.07;;
73675;SDS011;61975;48.660;10.164;2022-07-29T10:49:05;12.65;;;10.68;;
73675;SDS011;61975;48.660;10.164;2022-07-29T10:51:51;17.87;;;10.67;;
73675;SDS011;61975;48.660;10.164;2022-07-29T10:57:20;15.93;;;11.50;;
73675;SDS011;61975;48.660;10.164;2022-07-29T11:07:23;14.40;;;12.77;;
73675;SDS011;61975;48.660;10.164;2022-07-29T11:12:50;20.42;;;14.80;;
73675;SDS011;61975;48.660;10.164;2022-07-29T11:15:20;18.90;;;13.23;;
73675;SDS011;61975;48.660;10.164;2022-07-29T11:39:31;10.30;;;5.53;;
73675;SDS011;61975;48.660;10.164;2022-07-29T11:42:41;9.20;;;5.45;;
73675;SDS011;61975;48.660;10.164;2022-07-29T11:44:59;12.40;;;6.00;;
73675;SDS011;61975;48.660;10.164;2022-07-29T11:47:30;10.40;;;5.30;;
73675;SDS011;61975;48.660;10.164;2022-07-29T11:49:58;12.70;;;6.22;;
73675;SDS011;61975;48.660;10.164;2022-07-29T11:52:34;9.20;;;5.13;;
73675;SDS011;61975;48.660;10.164;2022-07-29T11:55:02;10.43;;;5.03;;
73675;SDS011;61975;48.660;10.164;2022-07-29T11:57:29;8.83;;;5.07;;
73675;SDS011;61975;48.660;10.164;2022-07-29T11:59:57;7.32;;;4.80;;
73675;SDS011;61975;48.660;10.164;2022-07-29T12:02:23;8.93;;;5.32;;
73675;SDS011;61975;48.660;10.164;2022-07-29T12:04:52;17.45;;;5.82;;
73675;SDS011;61975;48.660;10.164;2022-07-29T12:07:31;15.00;;;5.10;;
73675;SDS011;61975;48.660;10.164;2022-07-29T12:09:57;12.97;;;5.57;;
73675;SDS011;61975;48.660;10.164;2022-07-29T12:12:23;15.45;;;5.57;;
73675;SDS011;61975;48.660;10.164;2022-07-29T12:14:50;10.43;;;5.10;;
73675;SDS011;61975;48.660;10.164;2022-07-29T12:19:52;10.27;;;4.68;;
73675;SDS011;61975;48.660;10.164;2022-07-29T12:22:31;8.77;;;4.38;;
73675;SDS011;61975;48.660;10.164;2022-07-29T12:25:02;8.65;;;4.38;;
73675;SDS011;61975;48.660;10.164;2022-07-29T12:27:29;6.10;;;4.35;;
73675;SDS011;61975;48.660;10.164;2022-07-29T12:29:59;6.10;;;3.90;;
73675;SDS011;61975;48.660;10.164;2022-07-29T12:32:33;6.70;;;3.80;;
73675;SDS011;61975;48.660;10.164;2022-07-29T12:35:02;6.63;;;3.78;;
73675;SDS011;61975;48.660;10.164;2022-07-29T12:37:29;6.68;;;3.90;;
73675;SDS011;61975;48.660;10.164;2022-07-29T12:39:55;5.97;;;3.85;;
73675;SDS011;61975;48.660;10.164;2022-07-29T12:42:21;5.37;;;3.60;;
73675;SDS011;61975;48.660;10.164;2022-07-29T12:44:47;5.50;;;3.80;;
73675;SDS011;61975;48.660;10.164;2022-07-29T12:47:14;5.93;;;4.38;;
73675;SDS011;61975;48.660;10.164;2022-07-29T12:49:40;7.03;;;4.28;;
73675;SDS011;61975;48.660;10.164;2022-07-29T12:52:25;9.27;;;4.30;;
73675;SDS011;61975;48.660;10.164;2022-07-29T12:54:55;6.60;;;4.45;;
73675;SDS011;61975;48.660;10.164;2022-07-29T12:57:20;7.50;;;4.35;;
73675;SDS011;61975;48.660;10.164;2022-07-29T12:59:58;7.80;;;4.50;;
73675;SDS011;61975;48.660;10.164;2022-07-29T13:02:26;6.40;;;4.47;;
73675;SDS011;61975;48.660;10.164;2022-07-29T13:04:55;6.67;;;4.50;;
73675;SDS011;61975;48.660;10.164;2022-07-29T13:07:26;8.02;;;4.60;;
73675;SDS011;61975;48.660;10.164;2022-07-29T13:09:54;6.85;;;4.50;;
73675;SDS011;61975;48.660;10.164;2022-07-29T13:12:35;6.67;;;5.07;;
73675;SDS011;61975;48.660;10.164;2022-07-29T13:15:11;9.38;;;5.18;;
73675;SDS011;61975;48.660;10.164;2022-07-29T13:17:44;7.13;;;4.72;;
73675;SDS011;61975;48.660;10.164;2022-07-29T13:20:10;7.78;;;5.22;;
73675;SDS011;61975;48.660;10.164;2022-07-29T13:22:38;7.47;;;5.10;;
73675;SDS011;61975;48.660;10.164;2022-07-29T13:25:04;6.20;;;4.90;;
73675;SDS011;61975;48.660;10.164;2022-07-29T13:27:34;6.40;;;4.47;;
73675;SDS011;61975;48.660;10.164;2022-07-29T13:30:02;7.20;;;4.80;;
73675;SDS011;61975;48.660;10.164;2022-07-29T13:32:30;7.00;;;5.35;;
73675;SDS011;61975;48.660;10.164;2022-07-29T13:34:59;8.20;;;5.50;;
73675;SDS011;61975;48.660;10.164;2022-07-29T13:37:26;7.78;;;5.30;;
73675;SDS011;61975;48.660;10.164;2022-07-29T13:39:54;7.13;;;5.88;;
73675;SDS011;61975;48.660;10.164;2022-07-29T13:42:21;7.40;;;5.90;;
73675;SDS011;61975;48.660;10.164;2022-07-29T13:44:47;8.55;;;5.55;;
73675;SDS011;61975;48.660;10.164;2022-07-29T13:47:15;9.33;;;5.53;;
73675;SDS011;61975;48.660;10.164;2022-07-29T13:49:41;7.95;;;6.00;;
73675;SDS011;61975;48.660;10.164;2022-07-29T13:52:06;9.13;;;6.33;;
73675;SDS011;61975;48.660;10.164;2022-07-29T13:54:32;8.77;;;6.43;;
73675;SDS011;61975;48.660;10.164;2022-07-29T13:56:57;8.35;;;6.53;;
73675;SDS011;61975;48.660;10.164;2022-07-29T13:59:23;8.43;;;5.90;;
73675;SDS011;61975;48.660;10.164;2022-07-29T14:01:48;7.67;;;5.90;;
73675;SDS011;61975;48.660;10.164;2022-07-29T14:04:14;8.03;;;6.00;;
73675;SDS011;61975;48.660;10.164;2022-07-29T14:06:40;8.00;;;6.00;;
73675;SDS011;61975;48.660;10.164;2022-07-29T14:09:05;8.37;;;6.03;;
73675;SDS011;61975;48.660;10.164;2022-07-29T14:11:33;7.13;;;5.90;;
73675;SDS011;61975;48.660;10.164;2022-07-29T14:13:58;8.73;;;6.83;;
73675;SDS011;61975;48.660;10.164;2022-07-29T14:16:24;9.27;;;6.80;;
73675;SDS011;61975;48.660;10.164;2022-07-29T14:18:49;8.90;;;6.65;;
73675;SDS011;61975;48.660;10.164;2022-07-29T14:21:15;8.93;;;6.77;;
73675;SDS011;61975;48.660;10.164;2022-07-29T14:23:40;8.97;;;6.67;;
73675;SDS011;61975;48.660;10.164;2022-07-29T14:26:06;9.07;;;6.83;;
73675;SDS011;61975;48.660;10.164;2022-07-29T14:28:31;10.00;;;6.90;;
73675;SDS011;61975;48.660;10.164;2022-07-29T14:30:57;9.60;;;6.83;;
73675;SDS011;61975;48.660;10.164;2022-07-29T14:33:22;10.87;;;7.10;;
73675;SDS011;61975;48.660;10.164;2022-07-29T14:35:48;9.55;;;6.47;;
73675;SDS011;61975;48.660;10.164;2022-07-29T14:38:13;10.10;;;7.50;;
73675;SDS011;61975;48.660;10.164;2022-07-29T14:40:39;9.63;;;7.43;;
73675;SDS011;61975;48.660;10.164;2022-07-29T14:43:04;8.80;;;7.03;;
73675;SDS011;61975;48.660;10.164;2022-07-29T14:45:30;9.13;;;7.47;;
73675;SDS011;61975;48.660;10.164;2022-07-29T14:47:56;10.43;;;7.60;;
73675;SDS011;61975;48.660;10.164;2022-07-29T14:50:21;10.13;;;8.00;;
73675;SDS011;61975;48.660;10.164;2022-07-29T14:52:47;9.43;;;7.40;;
73675;SDS011;61975;48.660;10.164;2022-07-29T14:55:12;10.93;;;8.90;;
73675;SDS011;61975;48.660;10.164;2022-07-29T14:57:38;10.88;;;8.55;;
73675;SDS011;61975;48.660;10.164;2022-07-29T15:00:04;10.73;;;8.37;;
73675;SDS011;61975;48.660;10.164;2022-07-29T15:02:31;9.70;;;8.30;;
73675;SDS011;61975;48.660;10.164;2022-07-29T15:04:57;10.00;;;8.13;;
73675;SDS011;61975;48.660;10.164;2022-07-29T15:07:23;10.35;;;8.43;;
73675;SDS011;61975;48.660;10.164;2022-07-29T15:09:48;10.93;;;8.23;;
73675;SDS011;61975;48.660;10.164;2022-07-29T15:12:13;11.17;;;8.03;;
73675;SDS011;61975;48.660;10.164;2022-07-29T15:14:39;10.63;;;8.37;;
73675;SDS011;61975;48.660;10.164;2022-07-29T15:17:04;9.73;;;8.05;;
73675;SDS011;61975;48.660;10.164;2022-07-29T15:19:30;8.30;;;7.40;;
73675;SDS011;61975;48.660;10.164;2022-07-29T15:21:55;11.60;;;7.40;;
73675;SDS011;61975;48.660;10.164;2022-07-29T15:24:21;10.50;;;8.80;;
73675;SDS011;61975;48.660;10.164;2022-07-29T15:26:46;9.85;;;7.47;;
73675;SDS011;61975;48.660;10.164;2022-07-29T15:29:12;8.53;;;7.50;;
73675;SDS011;61975;48.660;10.164;2022-07-29T15:31:38;10.10;;;7.97;;
73675;SDS011;61975;48.660;10.164;2022-07-29T15:34:07;9.60;;;8.30;;
73675;SDS011;61975;48.660;10.164;2022-07-29T15:36:32;9.33;;;7.33;;